Time;durP1;ratioP1;P1;durP2;ratioP2;P2;SDS_P1;SDS_P2;PMS_P1;PMS_P2;Temp;Humidity;BMP_temperature;BMP_pressure;BME280_temperature;BME280_humidity;BME280_pressure;Samples;Min_cycle;Max_cycle;Signal;HPM_P1;HPM_P2
2022/08/12 00:52:06;;;;;;;4.90;2.35;;;30.40;32.70;;;;;;21252623;27;20380;-58
2022/08/12 01:02:10;;;;;;;6.03;2.67;;;30.40;32.60;;;;;;21251121;27;20183;-57
2022/08/12 01:12:12;;;;;;;4.38;2.65;;;30.20;32.70;;;;;;21250553;27;20439;-56
2022/08/12 01:22:24;;;;;;;4.95;2.05;;;30.10;32.90;;;;;;21249393;27;20047;-55
2022/08/12 01:32:29;;;;;;;5.28;2.45;;;30.10;33.00;;;;;;21249303;27;20043;-56
2022/08/12 01:42:48;;;;;;;4.55;2.50;;;30.00;33.10;;;;;;21248740;27;20107;-57
2022/08/12 01:53:01;;;;;;;3.78;2.42;;;29.80;33.10;;;;;;21248177;27;20043;-56
2022/08/12 02:03:16;;;;;;;7.70;2.20;;;29.70;33.40;;;;;;21248896;27;20394;-56
2022/08/12 02:13:37;;;;;;;6.57;2.20;;;29.60;33.50;;;;;;21247085;28;20039;-57
2022/08/12 02:23:45;;;;;;;5.25;2.40;;;29.50;33.60;;;;;;21246795;28;20054;-57
2022/08/12 02:33:50;;;;;;;5.75;2.40;;;29.40;33.40;;;;;;21246408;28;20043;-57
2022/08/12 02:43:59;;;;;;;5.95;2.35;;;29.30;33.40;;;;;;21246279;28;20158;-56
2022/08/12 02:54:05;;;;;;;5.67;2.03;;;29.20;33.30;;;;;;21245883;28;20150;-57
2022/08/12 03:04:11;;;;;;;6.43;2.33;;;29.10;33.70;;;;;;21259855;27;20057;-57
2022/08/12 03:14:16;;;;;;;4.32;2.28;;;29.10;33.70;;;;;;21260513;27;20414;-57
2022/08/12 03:24:25;;;;;;;5.10;2.13;;;29.00;33.80;;;;;;21260469;27;20411;-56
2022/08/12 03:34:34;;;;;;;4.55;2.40;;;29.00;33.90;;;;;;21258941;27;20096;-56
2022/08/12 04:05:31;;;;;;;5.83;2.40;;;28.60;34.60;;;;;;21256103;27;20092;-57
2022/08/12 04:15:33;;;;;;;4.57;2.72;;;28.50;34.90;;;;;;21256553;27;20774;-55
2022/08/12 04:25:38;;;;;;;5.32;2.67;;;28.40;35.10;;;;;;21256138;27;20452;-57
2022/08/12 04:35:41;;;;;;;8.02;3.60;;;28.40;35.20;;;;;;21254584;27;20059;-57
2022/08/12 04:45:45;;;;;;;8.25;2.80;;;28.40;35.30;;;;;;21234689;27;20059;-57
2022/08/12 04:55:51;;;;;;;9.70;3.05;;;28.40;35.20;;;;;;21252097;27;20179;-56
2022/08/12 05:06:12;;;;;;;13.98;2.97;;;28.40;35.00;;;;;;21252002;27;20444;-57
2022/08/12 05:16:23;;;;;;;10.00;3.00;;;28.30;35.20;;;;;;21251846;27;20069;-58
2022/08/12 05:26:28;;;;;;;14.13;4.30;;;28.20;35.60;;;;;;21248957;27;20054;-59
2022/08/12 05:36:32;;;;;;;11.00;4.55;;;27.90;37.60;;;;;;21249859;27;20415;-59
2022/08/12 05:46:36;;;;;;;10.75;4.10;;;27.60;38.60;;;;;;21249089;27;20043;-57
2022/08/12 05:56:39;;;;;;;9.32;3.67;;;27.50;38.50;;;;;;21248868;27;20054;-57
2022/08/12 06:06:42;;;;;;;14.73;4.63;;;27.40;38.80;;;;;;21248046;27;20514;-58
2022/08/12 06:16:45;;;;;;;13.68;4.35;;;27.30;39.20;;;;;;21246449;28;20051;-57
2022/08/12 06:26:47;;;;;;;12.15;4.05;;;27.20;39.10;;;;;;21246117;28;20494;-58
2022/08/12 06:36:49;;;;;;;15.30;4.03;;;27.10;39.40;;;;;;21256877;27;20054;-57
2022/08/12 06:46:51;;;;;;;17.15;4.70;;;27.10;39.80;;;;;;21243408;27;20058;-57
2022/08/12 06:56:54;;;;;;;14.77;4.28;;;27.40;39.10;;;;;;21262559;27;20086;-58
2022/08/12 07:06:56;;;;;;;11.35;4.10;;;27.70;38.80;;;;;;21261933;27;20475;-57
2022/08/12 07:17:01;;;;;;;14.35;4.03;;;28.10;38.00;;;;;;21260911;27;20486;-58
2022/08/12 07:27:02;;;;;;;12.27;3.60;;;28.60;36.50;;;;;;21259592;27;20055;-56
2022/08/12 07:37:05;;;;;;;8.48;3.10;;;29.10;35.30;;;;;;21258180;27;20043;-57
2022/08/12 07:47:07;;;;;;;8.60;3.33;;;29.60;34.20;;;;;;21256964;27;20484;-56
2022/08/12 07:57:10;;;;;;;10.75;4.38;;;30.00;33.40;;;;;;21257728;27;20046;-56
2022/08/12 08:07:14;;;;;;;13.90;3.70;;;30.20;33.40;;;;;;21256311;27;20096;-56
2022/08/12 08:17:16;;;;;;;10.02;4.03;;;30.40;33.60;;;;;;21256117;27;20507;-57
2022/08/12 08:27:20;;;;;;;13.63;3.35;;;30.80;32.20;;;;;;21255007;27;20406;-57
2022/08/12 08:37:22;;;;;;;13.48;3.38;;;31.00;31.90;;;;;;21254172;27;20047;-56
2022/08/12 08:47:24;;;;;;;8.70;3.90;;;31.10;31.60;;;;;;21253520;27;20051;-56
2022/08/12 08:57:27;;;;;;;15.43;3.75;;;31.10;31.90;;;;;;21252060;27;20057;-57
2022/08/12 09:07:28;;;;;;;10.07;3.55;;;31.40;31.30;;;;;;21251702;27;20552;-58
2022/08/12 09:17:32;;;;;;;11.63;3.70;;;31.60;30.80;;;;;;21250653;27;20043;-56
2022/08/12 09:27:35;;;;;;;10.25;4.30;;;31.60;30.90;;;;;;21250569;27;20414;-57
2022/08/12 09:37:37;;;;;;;15.43;4.18;;;31.70;30.80;;;;;;21249450;27;20108;-57
2022/08/12 09:47:40;;;;;;;12.02;4.30;;;31.80;30.80;;;;;;21248986;27;20043;-56
2022/08/12 09:57:41;;;;;;;8.98;3.72;;;32.10;30.30;;;;;;21248235;27;20082;-55
2022/08/12 10:07:43;;;;;;;9.30;4.10;;;32.20;29.30;;;;;;21257730;27;20086;-58
2022/08/12 10:17:45;;;;;;;9.55;3.17;;;32.60;28.50;;;;;;21275550;27;20122;-56
2022/08/12 10:38:16;;;;;;;6.97;3.28;;;32.40;27.80;;;;;;21275333;27;20070;-57
2022/08/12 10:48:19;;;;;;;9.40;3.88;;;32.70;27.60;;;;;;21274402;27;20051;-57
2022/08/12 10:58:21;;;;;;;9.65;3.28;;;32.90;27.50;;;;;;21274105;27;20047;-56
2022/08/12 11:08:23;;;;;;;8.48;3.20;;;33.20;27.30;;;;;;21255361;27;20133;-57
2022/08/12 11:18:24;;;;;;;9.20;3.25;;;33.40;27.20;;;;;;21269825;27;20452;-55
2022/08/12 11:28:26;;;;;;;9.82;3.88;;;33.60;27.10;;;;;;21259186;27;20097;-56
2022/08/12 11:38:28;;;;;;;10.82;4.32;;;33.80;26.80;;;;;;21258530;27;20047;-56
2022/08/12 11:48:36;;;;;;;13.40;4.45;;;34.10;26.80;;;;;;21257780;27;20051;-57
2022/08/12 11:58:38;;;;;;;10.32;3.60;;;34.40;26.70;;;;;;21257175;27;20047;-58
2022/08/12 12:08:40;;;;;;;7.38;3.97;;;34.50;26.00;;;;;;21256382;27;20050;-56
2022/08/12 12:18:41;;;;;;;11.80;4.45;;;34.60;25.80;;;;;;21256064;27;20100;-57
2022/08/12 12:28:43;;;;;;;11.30;4.03;;;34.60;26.10;;;;;;21253729;27;20058;-57
2022/08/12 12:38:44;;;;;;;14.05;5.10;;;34.90;26.10;;;;;;21254033;27;20527;-56
2022/08/12 12:48:46;;;;;;;10.20;3.95;;;35.10;25.70;;;;;;21253569;27;20054;-59
2022/08/12 12:58:49;;;;;;;15.00;4.70;;;35.30;25.80;;;;;;21252859;27;20058;-58
2022/08/12 13:08:53;;;;;;;27.40;6.18;;;35.60;25.50;;;;;;21252744;27;20051;-59
2022/08/12 13:18:56;;;;;;;16.60;5.00;;;35.80;24.90;;;;;;21232811;27;20490;-57
2022/08/12 13:28:59;;;;;;;22.17;6.13;;;35.60;25.00;;;;;;21250282;27;20078;-59
2022/08/12 13:39:03;;;;;;;23.67;6.57;;;35.70;24.90;;;;;;21231749;27;20056;-58
2022/08/12 13:49:05;;;;;;;18.50;5.43;;;35.80;24.70;;;;;;21249467;27;20051;-58
2022/08/12 13:59:07;;;;;;;22.40;6.07;;;36.00;24.50;;;;;;21248709;27;20239;-61
2022/08/12 14:09:09;;;;;;;38.78;9.18;;;36.00;24.10;;;;;;21248010;27;20047;-58
2022/08/12 14:19:11;;;;;;;33.53;7.72;;;36.30;23.30;;;;;;21247351;28;20043;-59
2022/08/12 14:29:13;;;;;;;43.40;11.00;;;36.20;23.20;;;;;;21247087;28;20116;-58
2022/08/12 14:39:16;;;;;;;45.58;10.30;;;36.50;22.80;;;;;;21247791;27;20055;-57
2022/08/12 14:49:17;;;;;;;39.70;10.43;;;36.30;22.70;;;;;;21247086;28;20051;-57
2022/08/12 15:09:39;;;;;;;55.15;11.30;;;36.30;22.80;;;;;;21261563;27;20046;-58
2022/08/12 15:19:40;;;;;;;46.95;13.15;;;36.50;23.10;;;;;;21261308;27;20047;-58
2022/08/12 15:29:42;;;;;;;47.03;11.45;;;36.60;22.70;;;;;;21261895;27;20047;-58
2022/08/12 15:39:43;;;;;;;40.00;10.90;;;36.60;22.80;;;;;;21259573;27;20047;-57
2022/08/12 15:49:45;;;;;;;47.58;11.38;;;36.60;23.00;;;;;;21258925;27;20047;-57
2022/08/12 15:59:46;;;;;;;63.22;14.15;;;36.70;23.10;;;;;;21257737;27;20051;-56
2022/08/12 16:09:48;;;;;;;52.15;14.32;;;36.60;23.00;;;;;;21256629;27;20049;-56
2022/08/12 16:19:50;;;;;;;52.25;14.63;;;36.50;23.60;;;;;;21237264;27;20054;-54
2022/08/12 16:29:56;;;;;;;57.92;13.70;;;36.60;23.40;;;;;;21255868;27;20039;-58
2022/08/12 16:39:58;;;;;;;49.33;13.73;;;36.60;24.20;;;;;;21254207;27;20099;-58
2022/08/12 16:50:01;;;;;;;52.10;11.82;;;36.40;23.70;;;;;;21254527;27;20054;-58
2022/08/12 17:00:07;;;;;;;49.13;13.65;;;36.20;23.80;;;;;;21252034;27;20054;-56
2022/08/12 17:10:13;;;;;;;44.53;11.93;;;36.30;23.80;;;;;;21251487;27;20105;-57
2022/08/12 17:20:17;;;;;;;47.75;11.25;;;36.20;24.30;;;;;;21252167;27;20058;-58
2022/08/12 17:30:19;;;;;;;56.83;13.60;;;36.10;23.90;;;;;;21251622;27;20043;-55
2022/08/12 17:40:25;;;;;;;56.22;12.95;;;36.00;24.00;;;;;;21213257;27;20048;-58
2022/08/12 17:50:27;;;;;;;56.03;12.75;;;36.00;24.10;;;;;;21163276;28;20051;-57
2022/08/12 18:00:30;;;;;;;51.80;13.00;;;35.90;24.10;;;;;;21164431;28;20450;-56
2022/08/12 18:20:55;;;;;;;60.85;13.52;;;35.60;24.10;;;;;;21162076;28;20462;-57
2022/08/12 18:30:58;;;;;;;49.95;11.88;;;35.50;24.00;;;;;;21170621;28;20124;-56
2022/08/12 18:51:22;;;;;;;47.88;11.32;;;35.20;24.20;;;;;;21263573;27;20050;-55
2022/08/12 19:01:24;;;;;;;49.97;13.18;;;35.10;24.30;;;;;;21261313;27;20134;-57
2022/08/12 19:21:47;;;;;;;53.40;15.57;;;34.70;24.80;;;;;;21244324;27;20053;-57
2022/08/12 19:31:51;;;;;;;53.85;12.68;;;34.50;25.00;;;;;;21259527;27;20118;-56
2022/08/12 19:41:53;;;;;;;54.05;13.10;;;34.40;25.30;;;;;;21257634;27;20134;-56
2022/08/12 19:51:55;;;;;;;53.08;12.30;;;34.20;25.60;;;;;;21258021;27;20054;-57
2022/08/12 20:01:57;;;;;;;58.22;14.23;;;34.10;25.90;;;;;;21257268;27;20140;-56
2022/08/12 20:12:00;;;;;;;51.55;12.70;;;34.00;26.00;;;;;;21256335;27;20053;-56
2022/08/12 20:22:07;;;;;;;46.55;12.35;;;33.90;26.00;;;;;;21255619;27;20435;-57
2022/08/12 20:32:11;;;;;;;60.55;16.60;;;33.80;26.10;;;;;;21257249;27;20047;-59
2022/08/12 20:42:13;;;;;;;49.80;14.75;;;33.80;26.40;;;;;;21254112;27;20104;-58
2022/08/12 20:52:15;;;;;;;55.60;14.40;;;33.80;26.50;;;;;;21252497;27;20089;-57
2022/08/12 21:02:18;;;;;;;41.00;12.77;;;33.50;27.10;;;;;;21253415;27;20126;-57
2022/08/12 21:12:22;;;;;;;49.50;12.13;;;33.50;27.10;;;;;;21251725;27;20043;-58
2022/08/12 21:22:27;;;;;;;48.17;13.02;;;33.50;27.10;;;;;;21250935;27;20499;-58
2022/08/12 21:32:28;;;;;;;44.80;13.88;;;33.40;27.10;;;;;;21250474;27;20458;-59
2022/08/12 21:42:30;;;;;;;46.95;13.20;;;33.10;27.90;;;;;;21249688;27;20495;-60
2022/08/12 21:52:32;;;;;;;45.03;12.25;;;32.80;28.80;;;;;;21249281;27;20479;-58
2022/08/12 22:12:56;;;;;;;50.20;13.32;;;32.40;29.00;;;;;;21248446;27;20499;-58
2022/08/12 22:22:59;;;;;;;48.13;18.10;;;32.30;29.80;;;;;;21246921;28;20051;-57
2022/08/12 22:33:04;;;;;;;41.92;13.60;;;32.20;29.70;;;;;;21247373;28;20039;-57
2022/08/12 22:53:27;;;;;;;38.10;12.20;;;32.00;30.40;;;;;;21246567;28;20414;-57
2022/08/12 23:03:33;;;;;;;47.30;12.15;;;31.90;30.50;;;;;;21246040;28;20055;-57
2022/08/12 23:13:59;;;;;;;52.83;13.25;;;31.60;30.70;;;;;;21247593;27;20059;-57
2022/08/12 23:24:02;;;;;;;50.53;12.52;;;31.30;30.90;;;;;;21259875;27;20058;-58
2022/08/12 23:34:04;;;;;;;43.80;10.93;;;31.20;30.90;;;;;;21259292;27;20043;-57
2022/08/12 23:44:06;;;;;;;47.30;12.55;;;31.10;30.80;;;;;;21258691;27;20059;-55
2022/08/12 23:54:08;;;;;;;43.55;11.90;;;30.90;31.30;;;;;;21258420;27;20126;-58
